createdAt,value
2018-02-24T00:00:25.698Z,77.22
2018-02-24T00:02:53.353Z,77.24
2018-02-24T00:05:20.953Z,76.78
2018-02-24T00:07:48.611Z,76.04
2018-02-24T00:10:16.786Z,76.55
2018-02-24T00:12:44.372Z,76.95
2018-02-24T00:15:14.308Z,76.56
2018-02-24T00:17:45.734Z,77.05
2018-02-24T00:20:15.071Z,77.70
2018-02-24T00:22:43.733Z,77.00
2018-02-24T00:25:12.801Z,76.33
2018-02-24T00:27:40.494Z,76.11
2018-02-24T00:30:11.664Z,76.23
2018-02-24T00:32:39.578Z,76.32
2018-02-24T00:35:10.314Z,75.90
2018-02-24T00:37:39.972Z,76.30
2018-02-24T00:40:08.863Z,76.39
2018-02-24T00:42:44.547Z,76.35
2018-02-24T00:45:13.496Z,75.75
2018-02-24T00:47:41.084Z,76.14
2018-02-24T00:50:08.740Z,76.36
2018-02-24T00:52:36.369Z,75.66
2018-02-24T00:55:04.224Z,76.28
2018-02-24T00:57:31.878Z,76.06
2018-02-24T00:59:59.584Z,75.24
2018-02-24T01:02:27.202Z,75.70
2018-02-24T01:04:54.811Z,76.04
2018-02-24T01:07:23.407Z,76.29
2018-02-24T01:09:51.014Z,76.37
2018-02-24T01:12:18.667Z,76.19
2018-02-24T01:14:46.250Z,76.07
2018-02-24T01:17:14.394Z,76.45
2018-02-24T01:19:42.068Z,76.65
2018-02-24T01:22:10.101Z,76.30
2018-02-24T01:24:37.723Z,76.08
2018-02-24T01:27:06.384Z,75.99
2018-02-24T01:29:34.222Z,76.03
2018-02-24T01:32:01.847Z,76.11
2018-02-24T01:34:29.444Z,75.36
2018-02-24T01:36:57.109Z,75.40
2018-02-24T01:39:25.498Z,74.78
2018-02-24T01:41:53.150Z,75.12
2018-02-24T01:44:20.754Z,74.43
2018-02-24T01:46:48.348Z,74.17
2018-02-24T01:49:16.729Z,74.53
2018-02-24T01:51:44.342Z,74.10
2018-02-24T01:54:11.955Z,73.82
2018-02-24T01:56:45.234Z,73.89
2018-02-24T01:59:17.267Z,73.88
2018-02-24T02:01:49.816Z,73.71
2018-02-24T02:04:23.003Z,74.05
2018-02-24T02:06:55.790Z,73.60
2018-02-24T02:09:28.672Z,73.91
2018-02-24T02:12:02.181Z,73.16
2018-02-24T02:14:34.513Z,72.98
2018-02-24T02:17:07.034Z,72.28
2018-02-24T02:19:39.734Z,72.81
2018-02-24T02:22:14.886Z,72.54
2018-02-24T02:24:47.574Z,72.53
2018-02-24T02:27:20.119Z,72.18
2018-02-24T02:29:53.891Z,72.29
2018-02-24T02:32:27.553Z,72.30
2018-02-24T02:35:00.605Z,72.53
2018-02-24T02:37:33.208Z,72.42
2018-02-24T02:40:08.392Z,72.62
2018-02-24T02:42:35.981Z,72.95
2018-02-24T02:45:09.684Z,73.22
2018-02-24T02:47:41.847Z,72.61
2018-02-24T02:50:16.477Z,73.13
2018-02-24T02:52:48.909Z,72.58
2018-02-24T02:55:21.826Z,72.88
2018-02-24T02:57:49.797Z,73.27
2018-02-24T03:00:17.789Z,73.69
2018-02-24T03:02:52.453Z,73.37
2018-02-24T03:05:23.375Z,73.02
2018-02-24T03:07:56.535Z,73.53
2018-02-24T03:10:30.288Z,73.38
2018-02-24T03:13:02.804Z,73.09
2018-02-24T03:15:36.167Z,73.27
2018-02-24T03:18:04.690Z,73.07
2018-02-24T03:20:32.303Z,73.21
2018-02-24T03:22:59.907Z,73.69
2018-02-24T03:25:27.526Z,73.86
2018-02-24T03:27:55.113Z,73.73
2018-02-24T03:30:24.151Z,73.74
2018-02-24T03:32:52.578Z,73.73
2018-02-24T03:35:20.266Z,73.62
2018-02-24T03:37:47.919Z,73.94
2018-02-24T03:40:19.424Z,73.62
2018-02-24T03:42:47.225Z,74.29
2018-02-24T03:45:15.469Z,74.04
2018-02-24T03:47:43.074Z,74.13
2018-02-24T03:50:10.769Z,74.24
2018-02-24T03:52:38.676Z,74.34
2018-02-24T03:55:06.389Z,74.48
2018-02-24T03:57:34.963Z,74.57
2018-02-24T04:00:02.862Z,74.88
2018-02-24T04:02:30.479Z,75.08
2018-02-24T04:04:58.198Z,75.26
2018-02-24T04:07:26.909Z,75.35
2018-02-24T04:09:54.507Z,76.00
2018-02-24T04:12:22.783Z,76.53
2018-02-24T04:14:50.646Z,76.26
2018-02-24T04:17:18.644Z,76.59
2018-02-24T04:19:46.221Z,76.49
2018-02-24T04:22:14.028Z,76.94
2018-02-24T04:24:45.607Z,77.59
2018-02-24T04:27:13.422Z,77.74
2018-02-24T04:29:41.005Z,77.91
2018-02-24T04:34:41.378Z,78.13
2018-02-24T04:37:09.734Z,78.50
2018-02-24T04:39:37.349Z,78.57
2018-02-24T04:42:05.015Z,78.94
2018-02-24T04:44:32.675Z,79.13
2018-02-24T04:47:00.295Z,79.43
2018-02-24T04:49:27.894Z,79.57
2018-02-24T04:51:55.484Z,79.38
2018-02-24T04:54:23.219Z,79.47
2018-02-24T04:56:50.805Z,79.59
2018-02-24T04:59:18.802Z,79.86
2018-02-24T05:01:46.471Z,80.41
2018-02-24T05:04:14.082Z,80.26
2018-02-24T05:06:41.668Z,80.27
2018-02-24T05:09:10.213Z,80.33
2018-02-24T05:11:37.997Z,80.26
2018-02-24T05:14:05.665Z,80.46
2018-02-24T05:16:33.325Z,80.27
2018-02-24T05:19:00.950Z,80.05
2018-02-24T05:21:30.124Z,80.41
2018-02-24T05:23:57.797Z,80.61
2018-02-24T05:26:25.668Z,80.35
2018-02-24T05:28:53.295Z,80.36
2018-02-24T05:34:11.770Z,81.79
2018-02-24T05:36:39.353Z,81.66
2018-02-24T05:39:07.289Z,82.01
2018-02-24T05:41:35.453Z,82.11
2018-02-24T05:44:03.102Z,82.29
2018-02-24T05:46:30.713Z,81.70
2018-02-24T05:48:58.347Z,81.73
2018-02-24T05:51:26.288Z,81.93
2018-02-24T05:53:54.077Z,82.45
2018-02-24T05:56:21.915Z,82.37
2018-02-24T05:59:01.289Z,82.19
2018-02-24T06:01:30.209Z,82.24
2018-02-24T06:03:57.814Z,82.06
2018-02-24T06:06:25.704Z,82.03
2018-02-24T06:08:53.427Z,81.61
2018-02-24T06:11:21.610Z,81.67
2018-02-24T06:13:49.466Z,80.70
2018-02-24T06:16:17.081Z,80.62
2018-02-24T06:18:44.709Z,80.29
2018-02-24T06:21:12.937Z,80.09
2018-02-24T06:23:40.538Z,80.12
2018-02-24T06:26:08.216Z,79.89
2018-02-24T06:28:35.875Z,79.60
2018-02-24T06:31:03.609Z,79.60
2018-02-24T06:33:31.274Z,78.88
2018-02-24T06:35:58.941Z,78.28
2018-02-24T06:38:26.601Z,77.98
2018-02-24T06:40:54.221Z,77.69
2018-02-24T06:43:22.200Z,76.79
2018-02-24T06:45:50.107Z,76.79
2018-02-24T06:48:17.794Z,76.83
2018-02-24T06:50:45.462Z,76.60
2018-02-24T06:53:13.394Z,76.26
2018-02-24T06:55:40.967Z,76.54
2018-02-24T06:58:08.698Z,75.93
2018-02-24T07:00:36.374Z,75.24
2018-02-24T07:03:04.073Z,74.98
2018-02-24T07:05:31.689Z,74.74
2018-02-24T07:08:01.715Z,74.24
2018-02-24T07:10:29.439Z,74.18
2018-02-24T07:12:57.091Z,72.31
2018-02-24T07:15:25.827Z,71.96
2018-02-24T07:17:54.821Z,72.53
2018-02-24T07:20:22.568Z,72.79
2018-02-24T07:22:52.260Z,71.87
2018-02-24T07:25:19.977Z,71.02
2018-02-24T07:27:47.992Z,70.97
2018-02-24T07:32:48.716Z,70.82
2018-02-24T07:35:16.759Z,71.67
2018-02-24T07:37:44.399Z,71.72
2018-02-24T07:40:12.891Z,71.80
2018-02-24T07:42:40.514Z,71.09
2018-02-24T07:45:09.877Z,70.73
2018-02-24T07:47:37.647Z,71.07
2018-02-24T07:50:05.268Z,71.17
2018-02-24T07:52:32.924Z,71.09
2018-02-24T07:55:00.604Z,70.42
2018-02-24T07:57:28.735Z,70.90
2018-02-24T07:59:56.419Z,70.16
2018-02-24T08:02:24.042Z,71.16
2018-02-24T08:04:51.717Z,68.18
2018-02-24T08:07:19.379Z,67.52
2018-02-24T08:09:47.026Z,67.20
2018-02-24T08:12:14.673Z,66.79
2018-02-24T08:14:42.293Z,65.98
2018-02-24T08:17:12.584Z,64.55
2018-02-24T08:19:40.183Z,64.99
2018-02-24T08:22:07.831Z,65.15
2018-02-24T08:24:35.536Z,65.15
2018-02-24T08:27:03.394Z,64.52
2018-02-24T08:29:32.337Z,64.27
2018-02-24T08:31:59.945Z,64.71
2018-02-24T08:34:27.798Z,64.60
2018-02-24T08:36:55.385Z,64.45
2018-02-24T08:39:24.353Z,64.11
2018-02-24T08:41:52.045Z,63.24
2018-02-24T08:44:19.767Z,63.43
2018-02-24T08:46:47.424Z,64.00
2018-02-24T08:49:15.042Z,61.42
2018-02-24T08:51:44.522Z,60.25
2018-02-24T08:54:12.578Z,62.47
2018-02-24T08:56:40.232Z,61.12
2018-02-24T08:59:07.822Z,59.31
2018-02-24T09:01:35.652Z,60.52
2018-02-24T09:04:03.527Z,61.94
2018-02-24T09:06:31.198Z,61.18
2018-02-24T09:08:58.872Z,60.86
2018-02-24T09:11:26.728Z,59.57
2018-02-24T09:13:54.300Z,57.12
2018-02-24T09:16:21.866Z,56.28
2018-02-24T09:18:49.460Z,56.33
2018-02-24T09:21:17.069Z,57.94
2018-02-24T09:23:44.650Z,57.54
2018-02-24T09:26:12.267Z,58.24
2018-02-24T09:28:39.947Z,55.69
2018-02-24T09:31:07.884Z,56.76
2018-02-24T09:33:35.617Z,55.63
2018-02-24T09:36:07.261Z,56.51
2018-02-24T09:38:34.953Z,53.79
2018-02-24T09:41:02.631Z,53.66
2018-02-24T09:43:31.134Z,53.15
2018-02-24T09:45:58.808Z,53.46
2018-02-24T09:48:26.764Z,54.13
2018-02-24T09:50:54.354Z,55.65
2018-02-24T09:53:21.979Z,54.60
2018-02-24T09:55:49.561Z,53.70
2018-02-24T09:58:17.150Z,54.83
2018-02-24T10:00:44.757Z,51.81
2018-02-24T10:03:12.761Z,52.14
2018-02-24T10:05:40.334Z,50.29
2018-02-24T10:08:07.962Z,51.18
2018-02-24T10:10:35.567Z,50.08
2018-02-24T10:13:03.229Z,50.00
2018-02-24T10:15:30.818Z,49.53
2018-02-24T10:17:58.413Z,46.15
2018-02-24T10:20:26.026Z,46.78
2018-02-24T10:22:53.614Z,46.38
2018-02-24T10:25:21.246Z,47.42
2018-02-24T10:27:48.978Z,47.14
2018-02-24T10:30:16.578Z,48.08
2018-02-24T10:32:44.167Z,47.45
2018-02-24T10:35:12.221Z,44.61
2018-02-24T10:37:48.645Z,48.24
2018-02-24T10:40:16.281Z,48.25
2018-02-24T10:42:43.899Z,47.77
2018-02-24T10:45:12.363Z,49.75
2018-02-24T10:47:40.065Z,47.47
2018-02-24T10:50:07.641Z,47.08
2018-02-24T10:52:35.265Z,45.80
2018-02-24T10:55:02.879Z,46.55
2018-02-24T10:57:30.494Z,48.42
2018-02-24T10:59:58.112Z,48.83
2018-02-24T11:02:25.790Z,47.82
2018-02-24T11:04:53.390Z,47.97
2018-02-24T11:07:22.617Z,48.25
2018-02-24T11:09:52.291Z,50.64
2018-02-24T11:12:22.216Z,49.98
2018-02-24T11:14:49.834Z,50.48
2018-02-24T11:17:18.767Z,51.16
2018-02-24T11:19:48.176Z,50.70
2018-02-24T11:22:15.830Z,50.84
2018-02-24T11:24:44.860Z,51.49
2018-02-24T11:27:12.437Z,50.22
2018-02-24T11:29:41.018Z,50.82
2018-02-24T11:32:08.606Z,52.45
2018-02-24T11:34:36.193Z,51.42
2018-02-24T11:37:03.989Z,50.78
2018-02-24T11:39:39.498Z,50.45
2018-02-24T11:42:08.019Z,50.83
2018-02-24T11:44:35.674Z,49.96
2018-02-24T11:47:04.274Z,50.21
2018-02-24T11:49:35.494Z,49.54
2018-02-24T11:52:03.321Z,48.28
2018-02-24T11:54:30.971Z,49.77
2018-02-24T11:56:58.729Z,51.37
2018-02-24T11:59:26.427Z,50.59
2018-02-24T12:01:54.100Z,48.71
2018-02-24T12:04:21.803Z,49.52
2018-02-24T12:06:49.494Z,48.18
2018-02-24T12:09:17.778Z,51.17
2018-02-24T12:11:45.554Z,48.75
2018-02-24T12:14:13.178Z,48.07
2018-02-24T12:16:40.773Z,47.91
2018-02-24T12:19:23.258Z,48.62
2018-02-24T12:21:50.836Z,44.79
2018-02-24T12:24:18.556Z,43.58
2018-02-24T12:26:46.161Z,41.49
2018-02-24T12:29:13.803Z,41.21
2018-02-24T12:31:41.423Z,42.92
2018-02-24T12:34:09.300Z,43.07
2018-02-24T12:36:37.347Z,42.88
2018-02-24T12:39:05.399Z,43.56
2018-02-24T12:41:33.268Z,44.79
2018-02-24T12:44:00.828Z,44.76
2018-02-24T12:46:28.865Z,45.73
2018-02-24T12:48:56.480Z,43.56
2018-02-24T12:51:24.161Z,44.06
2018-02-24T12:53:52.362Z,45.40
2018-02-24T12:56:19.994Z,44.87
2018-02-24T12:58:47.587Z,43.29
2018-02-24T13:01:15.263Z,41.62
2018-02-24T13:03:43.192Z,41.34
2018-02-24T13:06:11.326Z,41.22
2018-02-24T13:08:39.028Z,43.88
2018-02-24T13:11:10.139Z,47.45
2018-02-24T13:13:37.741Z,49.54
2018-02-24T13:16:05.368Z,50.41
2018-02-24T13:18:32.969Z,50.26
2018-02-24T13:21:00.582Z,50.54
2018-02-24T13:23:31.732Z,50.79
2018-02-24T13:26:00.072Z,51.75
2018-02-24T13:28:28.870Z,52.01
2018-02-24T13:30:56.488Z,51.34
2018-02-24T13:33:24.870Z,51.98
2018-02-24T13:35:52.931Z,51.79
2018-02-24T13:38:20.969Z,52.42
2018-02-24T13:40:48.867Z,52.43
2018-02-24T13:43:16.778Z,51.68
2018-02-24T13:45:44.501Z,51.08
2018-02-24T13:48:12.120Z,50.88
2018-02-24T13:50:40.128Z,51.37
2018-02-24T13:53:07.896Z,52.73
2018-02-24T13:55:35.885Z,53.33
2018-02-24T13:58:03.523Z,53.45
2018-02-24T14:00:31.107Z,52.26
2018-02-24T14:02:58.811Z,51.84
2018-02-24T14:05:26.765Z,53.33
2018-02-24T14:07:54.376Z,53.51
2018-02-24T14:10:22.061Z,53.22
2018-02-24T14:12:49.680Z,53.21
2018-02-24T14:15:18.384Z,54.07
2018-02-24T14:17:45.992Z,55.46
2018-02-24T14:20:13.679Z,55.31
2018-02-24T14:22:41.322Z,55.12
2018-02-24T14:25:09.396Z,55.79
2018-02-24T14:27:38.038Z,55.05
2018-02-24T14:30:05.705Z,54.57
2018-02-24T14:32:33.430Z,53.69
2018-02-24T14:35:01.049Z,53.90
2018-02-24T14:37:29.038Z,53.26
2018-02-24T14:39:56.720Z,53.49
2018-02-24T14:42:25.697Z,51.80
2018-02-24T14:44:53.351Z,50.34
2018-02-24T14:47:21.704Z,47.97
2018-02-24T14:49:49.466Z,49.52
2018-02-24T14:52:17.168Z,50.64
2018-02-24T14:54:44.819Z,50.68
2018-02-24T14:57:14.622Z,50.31
2018-02-24T14:59:46.454Z,51.29
2018-02-24T15:02:16.180Z,51.54
2018-02-24T15:04:46.967Z,52.32
2018-02-24T15:07:16.246Z,52.28
2018-02-24T15:09:46.121Z,51.85
2018-02-24T15:12:17.700Z,51.03
2018-02-24T15:14:45.480Z,49.67
2018-02-24T15:17:13.390Z,48.01
2018-02-24T15:19:43.598Z,47.42
2018-02-24T15:22:11.448Z,46.91
2018-02-24T15:24:43.155Z,44.82
2018-02-24T15:27:12.004Z,44.83
2018-02-24T15:29:41.193Z,44.44
2018-02-24T15:32:09.994Z,45.42
2018-02-24T15:34:38.460Z,45.09
2018-02-24T15:37:07.290Z,45.04
2018-02-24T15:39:36.874Z,44.68
2018-02-24T15:42:06.623Z,43.50
2018-02-24T15:44:34.491Z,42.91
2018-02-24T15:47:02.190Z,44.21
2018-02-24T15:49:33.025Z,45.29
2018-02-24T15:52:07.314Z,46.49
2018-02-24T15:54:35.113Z,48.03
2018-02-24T15:57:04.671Z,48.59
2018-02-24T15:59:32.282Z,48.61
2018-02-24T16:01:59.954Z,49.35
2018-02-24T16:04:27.583Z,50.11
2018-02-24T16:06:55.243Z,50.82
2018-02-24T16:09:23.164Z,51.80
2018-02-24T16:11:51.237Z,52.95
2018-02-24T16:14:19.807Z,53.17
2018-02-24T16:16:47.516Z,53.31
2018-02-24T16:19:15.766Z,52.60
2018-02-24T16:21:43.708Z,52.57
2018-02-24T16:24:11.384Z,53.17
2018-02-24T16:26:38.972Z,54.77
2018-02-24T16:29:07.271Z,54.51
2018-02-24T16:31:35.338Z,55.82
2018-02-24T16:34:03.018Z,56.87
2018-02-24T16:36:31.854Z,56.87
2018-02-24T16:38:59.487Z,57.29
2018-02-24T16:41:28.548Z,57.16
2018-02-24T16:43:56.112Z,57.21
2018-02-24T16:46:23.761Z,57.85
2018-02-24T16:48:51.412Z,57.84
2018-02-24T16:51:19.633Z,57.94
2018-02-24T16:53:47.261Z,57.93
2018-02-24T16:56:14.938Z,57.76
2018-02-24T16:58:42.502Z,58.28
2018-02-24T17:01:10.270Z,58.81
2018-02-24T17:03:37.945Z,59.74
2018-02-24T17:06:05.546Z,60.03
2018-02-24T17:08:33.157Z,59.72
2018-02-24T17:11:00.802Z,60.31
2018-02-24T17:13:29.526Z,60.29
2018-02-24T17:15:57.130Z,59.98
2018-02-24T17:18:25.484Z,60.02
2018-02-24T17:20:53.060Z,60.10
2018-02-24T17:23:20.743Z,59.97
2018-02-24T17:25:49.127Z,59.89
2018-02-24T17:28:16.784Z,59.90
2018-02-24T17:30:47.286Z,60.00
2018-02-24T17:33:27.758Z,60.25
2018-02-24T17:35:55.438Z,60.71
2018-02-24T17:38:23.158Z,61.69
2018-02-24T17:40:50.741Z,61.70
2018-02-24T17:43:19.392Z,62.07
2018-02-24T17:45:47.040Z,61.54
2018-02-24T17:48:14.762Z,62.26
2018-02-24T17:50:42.377Z,61.85
2018-02-24T17:53:11.448Z,61.68
2018-02-24T17:55:39.119Z,61.73
2018-02-24T17:58:06.721Z,61.82
2018-02-24T18:00:34.365Z,62.14
2018-02-24T18:03:02.042Z,62.15
2018-02-24T18:05:29.844Z,63.54
2018-02-24T18:07:57.857Z,63.63
2018-02-24T18:10:25.461Z,63.11
2018-02-24T18:12:53.378Z,63.59
2018-02-24T18:15:21.111Z,64.13
2018-02-24T18:17:48.766Z,63.81
2018-02-24T18:23:04.282Z,64.50
2018-02-24T18:25:33.880Z,64.11
2018-02-24T18:28:01.585Z,64.32
2018-02-24T18:30:29.170Z,64.79
2018-02-24T18:32:56.766Z,65.35
2018-02-24T18:35:24.603Z,63.80
2018-02-24T18:37:52.252Z,65.14
2018-02-24T18:40:19.847Z,65.22
2018-02-24T18:42:47.470Z,65.25
2018-02-24T18:45:15.054Z,65.54
2018-02-24T18:47:42.620Z,65.46
2018-02-24T18:50:10.324Z,64.43
2018-02-24T18:52:38.011Z,64.49
2018-02-24T18:55:05.915Z,65.14
2018-02-24T18:57:34.416Z,65.08
2018-02-24T19:00:02.197Z,65.15
2018-02-24T19:02:29.918Z,65.65
2018-02-24T19:04:57.491Z,65.05
2018-02-24T19:07:25.287Z,65.31
2018-02-24T19:09:54.201Z,66.12
2018-02-24T19:12:22.219Z,65.70
2018-02-24T19:14:49.832Z,65.96
2018-02-24T19:17:18.708Z,66.08
2018-02-24T19:19:46.394Z,65.28
2018-02-24T19:22:14.010Z,64.47
2018-02-24T19:24:41.597Z,64.98
2018-02-24T19:27:09.410Z,64.55
2018-02-24T19:29:37.407Z,65.10
2018-02-24T19:32:05.311Z,65.13
2018-02-24T19:34:51.566Z,64.95
2018-02-24T19:37:19.283Z,65.98
2018-02-24T19:39:47.081Z,66.22
2018-02-24T19:42:14.930Z,65.61
2018-02-24T19:44:42.559Z,66.09
2018-02-24T19:47:10.845Z,66.13
2018-02-24T19:49:38.520Z,66.20
2018-02-24T19:52:06.156Z,66.84
2018-02-24T19:54:33.883Z,66.81
2018-02-24T19:57:01.483Z,66.74
2018-02-24T19:59:46.687Z,67.58
2018-02-24T20:02:14.276Z,66.53
2018-02-24T20:04:41.816Z,67.00
2018-02-24T20:07:09.742Z,66.57
2018-02-24T20:09:37.318Z,66.80
2018-02-24T20:12:27.108Z,67.46
2018-02-24T20:14:54.678Z,68.21
2018-02-24T20:17:24.639Z,68.47
2018-02-24T20:19:52.323Z,67.86
2018-02-24T20:22:20.083Z,67.77
2018-02-24T20:24:47.714Z,67.35
2018-02-24T20:27:15.350Z,66.87
2018-02-24T20:29:43.311Z,66.99
2018-02-24T20:32:10.897Z,67.17
2018-02-24T20:34:38.681Z,67.21
2018-02-24T20:37:06.678Z,66.62
2018-02-24T20:39:34.392Z,66.84
2018-02-24T20:42:01.974Z,67.06
2018-02-24T20:44:31.445Z,67.49
2018-02-24T20:46:59.288Z,67.91
2018-02-24T20:49:27.712Z,67.67
2018-02-24T20:51:55.465Z,67.63
2018-02-24T20:54:27.320Z,67.37
2018-02-24T20:56:55.464Z,67.74
2018-02-24T20:59:23.148Z,66.88
2018-02-24T21:01:50.734Z,67.38
2018-02-24T21:04:18.364Z,67.31
2018-02-24T21:06:50.054Z,68.12
2018-02-24T21:09:18.135Z,67.27
2018-02-24T21:11:46.031Z,67.39
2018-02-24T21:14:14.530Z,67.84
2018-02-24T21:16:42.182Z,67.64
2018-02-24T21:19:10.064Z,67.82
2018-02-24T21:21:37.885Z,68.21
2018-02-24T21:24:05.540Z,67.86
2018-02-24T21:26:33.187Z,68.40
2018-02-24T21:29:00.770Z,68.57
2018-02-24T21:31:29.834Z,68.78
2018-02-24T21:33:57.448Z,68.78
2018-02-24T21:36:25.350Z,69.60
2018-02-24T21:38:53.081Z,68.94
2018-02-24T21:41:20.747Z,68.67
2018-02-24T21:43:48.336Z,68.49
2018-02-24T21:46:15.965Z,68.66
2018-02-24T21:48:43.621Z,68.74
2018-02-24T21:51:12.052Z,68.86
2018-02-24T21:53:39.831Z,69.42
2018-02-24T21:56:07.552Z,69.22
2018-02-24T21:58:35.159Z,68.94
2018-02-24T22:01:03.184Z,69.42
2018-02-24T22:03:30.843Z,69.20
2018-02-24T22:05:58.491Z,69.12
2018-02-24T22:08:26.156Z,69.70
2018-02-24T22:10:53.793Z,69.50
2018-02-24T22:13:22.190Z,69.02
2018-02-24T22:15:49.896Z,69.68
2018-02-24T22:18:17.715Z,69.26
2018-02-24T22:20:45.617Z,69.58
2018-02-24T22:23:13.624Z,69.57
2018-02-24T22:25:41.466Z,69.02
2018-02-24T22:28:09.095Z,69.12
2018-02-24T22:30:36.702Z,68.93
2018-02-24T22:33:04.452Z,68.73
2018-02-24T22:35:32.381Z,68.66
2018-02-24T22:38:00.024Z,69.27
2018-02-24T22:40:27.699Z,69.07
2018-02-24T22:42:55.364Z,69.43
2018-02-24T22:45:23.208Z,69.51
2018-02-24T22:47:56.242Z,69.73
2018-02-24T22:50:23.948Z,70.20
2018-02-24T22:52:51.578Z,69.64
2018-02-24T22:55:19.902Z,69.70
2018-02-24T22:57:47.594Z,69.86
2018-02-24T23:00:15.247Z,70.16
2018-02-24T23:02:42.881Z,70.00
2018-02-24T23:05:11.575Z,70.33
2018-02-24T23:07:39.246Z,70.78
2018-02-24T23:10:07.540Z,70.23
2018-02-24T23:12:35.174Z,70.51
2018-02-24T23:15:02.995Z,70.41
2018-02-24T23:17:32.395Z,70.39
2018-02-24T23:20:00.083Z,70.58
2018-02-24T23:22:27.679Z,70.70
2018-02-24T23:24:55.272Z,71.18
2018-02-24T23:27:22.877Z,71.03
2018-02-24T23:29:50.497Z,71.23
2018-02-24T23:32:18.089Z,71.55
2018-02-24T23:34:45.688Z,70.63
2018-02-24T23:37:14.834Z,70.17
2018-02-24T23:39:43.674Z,70.18
2018-02-24T23:42:11.367Z,70.13
2018-02-24T23:44:38.984Z,70.48
2018-02-24T23:47:08.472Z,71.01
2018-02-24T23:49:36.076Z,70.86
2018-02-24T23:54:56.132Z,71.37
2018-02-24T23:57:24.385Z,72.75
2018-02-24T23:59:52.051Z,73.97
